sensor_id;sensor_type;location;lat;lon;timestamp;pressure;altitude;pressure_sealevel;temperature;humidity
11339;BME280;5724;42.684;23.252;2022-07-23T00:00:15;94637.63;;;21.11;58.28
11339;BME280;5724;42.684;23.252;2022-07-23T00:02:41;94634.63;;;20.98;58.79
11339;BME280;5724;42.684;23.252;2022-07-23T00:05:07;94641.22;;;20.81;59.75
11339;BME280;5724;42.684;23.252;2022-07-23T00:07:32;94640.84;;;20.79;59.82
11339;BME280;5724;42.684;23.252;2022-07-23T00:09:58;94643.22;;;20.80;59.70
11339;BME280;5724;42.684;23.252;2022-07-23T00:12:24;94646.13;;;20.70;60.02
11339;BME280;5724;42.684;23.252;2022-07-23T00:14:49;94651.50;;;20.53;61.31
11339;BME280;5724;42.684;23.252;2022-07-23T00:17:15;94649.97;;;20.49;60.43
11339;BME280;5724;42.684;23.252;2022-07-23T00:19:40;94649.50;;;20.54;59.74
11339;BME280;5724;42.684;23.252;2022-07-23T00:22:06;94650.78;;;20.46;60.51
11339;BME280;5724;42.684;23.252;2022-07-23T00:24:31;94654.00;;;20.41;60.40
11339;BME280;5724;42.684;23.252;2022-07-23T00:26:57;94645.72;;;20.37;59.75
11339;BME280;5724;42.684;23.252;2022-07-23T00:29:22;94644.66;;;20.27;59.53
11339;BME280;5724;42.684;23.252;2022-07-23T00:31:48;94653.34;;;20.26;58.95
11339;BME280;5724;42.684;23.252;2022-07-23T00:34:13;94642.25;;;20.26;58.70
11339;BME280;5724;42.684;23.252;2022-07-23T00:36:39;94653.28;;;20.33;60.05
11339;BME280;5724;42.684;23.252;2022-07-23T00:39:04;94632.84;;;20.20;60.69
11339;BME280;5724;42.684;23.252;2022-07-23T00:41:30;94654.97;;;20.23;60.82
11339;BME280;5724;42.684;23.252;2022-07-23T00:43:56;94639.16;;;20.20;60.66
11339;BME280;5724;42.684;23.252;2022-07-23T00:46:22;94653.81;;;20.21;60.96
11339;BME280;5724;42.684;23.252;2022-07-23T00:48:48;94655.47;;;20.15;60.78
11339;BME280;5724;42.684;23.252;2022-07-23T00:51:17;94651.53;;;20.12;61.19
11339;BME280;5724;42.684;23.252;2022-07-23T00:53:44;94651.06;;;20.21;60.74
11339;BME280;5724;42.684;23.252;2022-07-23T00:56:10;94647.91;;;20.19;60.75
11339;BME280;5724;42.684;23.252;2022-07-23T00:58:35;94649.91;;;20.15;60.95
11339;BME280;5724;42.684;23.252;2022-07-23T01:01:02;94651.06;;;20.21;60.71
11339;BME280;5724;42.684;23.252;2022-07-23T01:03:27;94643.59;;;20.14;60.76
11339;BME280;5724;42.684;23.252;2022-07-23T01:05:53;94650.28;;;20.17;60.92
11339;BME280;5724;42.684;23.252;2022-07-23T01:08:19;94651.13;;;20.14;60.96
11339;BME280;5724;42.684;23.252;2022-07-23T01:10:46;94649.31;;;19.96;61.55
11339;BME280;5724;42.684;23.252;2022-07-23T01:13:12;94645.84;;;19.89;61.39
11339;BME280;5724;42.684;23.252;2022-07-23T01:15:38;94642.72;;;19.83;61.47
11339;BME280;5724;42.684;23.252;2022-07-23T01:18:05;94641.09;;;19.86;61.15
11339;BME280;5724;42.684;23.252;2022-07-23T01:20:31;94628.59;;;19.70;61.54
11339;BME280;5724;42.684;23.252;2022-07-23T01:22:57;94629.38;;;19.71;61.46
11339;BME280;5724;42.684;23.252;2022-07-23T01:25:23;94639.59;;;19.78;61.24
11339;BME280;5724;42.684;23.252;2022-07-23T01:27:51;94645.84;;;19.85;60.80
11339;BME280;5724;42.684;23.252;2022-07-23T01:30:17;94649.41;;;19.89;60.18
11339;BME280;5724;42.684;23.252;2022-07-23T01:32:42;94632.81;;;19.82;60.26
11339;BME280;5724;42.684;23.252;2022-07-23T01:35:09;94639.16;;;19.83;60.75
11339;BME280;5724;42.684;23.252;2022-07-23T01:37:35;94635.66;;;19.75;60.60
11339;BME280;5724;42.684;23.252;2022-07-23T01:40:00;94636.03;;;19.77;60.99
11339;BME280;5724;42.684;23.252;2022-07-23T01:42:26;94635.66;;;19.75;61.39
11339;BME280;5724;42.684;23.252;2022-07-23T01:44:51;94640.47;;;19.71;61.68
11339;BME280;5724;42.684;23.252;2022-07-23T01:47:17;94638.47;;;19.71;61.48
11339;BME280;5724;42.684;23.252;2022-07-23T01:49:42;94643.16;;;19.78;61.25
11339;BME280;5724;42.684;23.252;2022-07-23T01:52:08;94638.44;;;19.75;61.14
11339;BME280;5724;42.684;23.252;2022-07-23T01:54:38;94632.47;;;19.77;60.66
11339;BME280;5724;42.684;23.252;2022-07-23T01:57:04;94640.00;;;19.76;60.32
11339;BME280;5724;42.684;23.252;2022-07-23T01:59:30;94644.34;;;19.77;60.27
11339;BME280;5724;42.684;23.252;2022-07-23T02:01:55;94644.03;;;19.71;60.16
11339;BME280;5724;42.684;23.252;2022-07-23T02:04:22;94637.31;;;19.69;60.04
11339;BME280;5724;42.684;23.252;2022-07-23T02:06:48;94632.31;;;19.46;60.19
11339;BME280;5724;42.684;23.252;2022-07-23T02:09:14;94635.44;;;19.52;60.37
11339;BME280;5724;42.684;23.252;2022-07-23T02:11:40;94635.88;;;19.47;60.42
11339;BME280;5724;42.684;23.252;2022-07-23T02:14:06;94637.06;;;19.45;60.44
11339;BME280;5724;42.684;23.252;2022-07-23T02:16:32;94634.31;;;19.45;60.14
11339;BME280;5724;42.684;23.252;2022-07-23T02:18:57;94634.25;;;19.49;60.50
11339;BME280;5724;42.684;23.252;2022-07-23T02:21:22;94635.88;;;19.50;60.24
11339;BME280;5724;42.684;23.252;2022-07-23T02:23:48;94633.47;;;19.49;60.53
11339;BME280;5724;42.684;23.252;2022-07-23T02:26:13;94635.91;;;19.43;60.52
11339;BME280;5724;42.684;23.252;2022-07-23T02:28:39;94646.94;;;19.50;61.15
11339;BME280;5724;42.684;23.252;2022-07-23T02:31:04;94635.88;;;19.47;61.72
11339;BME280;5724;42.684;23.252;2022-07-23T02:33:32;94633.09;;;19.50;61.68
11339;BME280;5724;42.684;23.252;2022-07-23T02:35:57;94637.44;;;19.48;61.87
11339;BME280;5724;42.684;23.252;2022-07-23T02:38:23;94639.00;;;19.56;61.76
11339;BME280;5724;42.684;23.252;2022-07-23T02:40:48;94641.78;;;19.49;61.83
11339;BME280;5724;42.684;23.252;2022-07-23T02:43:14;94644.66;;;19.41;61.88
11339;BME280;5724;42.684;23.252;2022-07-23T02:45:39;94641.91;;;19.34;62.12
11339;BME280;5724;42.684;23.252;2022-07-23T02:48:05;94644.69;;;19.34;61.83
11339;BME280;5724;42.684;23.252;2022-07-23T02:50:30;94641.97;;;19.31;61.99
11339;BME280;5724;42.684;23.252;2022-07-23T02:52:56;94648.69;;;19.26;62.96
11339;BME280;5724;42.684;23.252;2022-07-23T02:55:21;94645.59;;;19.17;63.52
11339;BME280;5724;42.684;23.252;2022-07-23T02:57:47;94635.84;;;19.02;63.94
11339;BME280;5724;42.684;23.252;2022-07-23T03:00:12;94651.31;;;18.92;64.64
11339;BME280;5724;42.684;23.252;2022-07-23T03:02:38;94648.19;;;18.86;64.79
11339;BME280;5724;42.684;23.252;2022-07-23T03:05:04;94653.69;;;18.90;64.75
11339;BME280;5724;42.684;23.252;2022-07-23T03:07:30;94658.50;;;18.82;65.04
11339;BME280;5724;42.684;23.252;2022-07-23T03:09:55;94665.59;;;18.80;65.10
11339;BME280;5724;42.684;23.252;2022-07-23T03:12:21;94667.19;;;18.84;65.06
11339;BME280;5724;42.684;23.252;2022-07-23T03:14:46;94669.59;;;18.75;65.40
11339;BME280;5724;42.684;23.252;2022-07-23T03:17:12;94666.44;;;18.70;64.96
11339;BME280;5724;42.684;23.252;2022-07-23T03:19:37;94675.16;;;18.68;64.74
11339;BME280;5724;42.684;23.252;2022-07-23T03:22:04;94678.66;;;18.79;64.68
11339;BME280;5724;42.684;23.252;2022-07-23T03:24:30;94681.44;;;18.79;64.60
11339;BME280;5724;42.684;23.252;2022-07-23T03:27:14;94676.72;;;18.73;64.33
11339;BME280;5724;42.684;23.252;2022-07-23T03:29:40;94684.56;;;18.81;63.64
11339;BME280;5724;42.684;23.252;2022-07-23T03:32:05;94679.19;;;18.46;63.38
11339;BME280;5724;42.684;23.252;2022-07-23T03:34:31;94686.31;;;18.40;63.75
11339;BME280;5724;42.684;23.252;2022-07-23T03:36:57;94683.97;;;18.27;64.14
11339;BME280;5724;42.684;23.252;2022-07-23T03:39:22;94675.66;;;18.31;64.30
11339;BME280;5724;42.684;23.252;2022-07-23T03:41:48;94693.00;;;18.42;64.15
11339;BME280;5724;42.684;23.252;2022-07-23T03:44:13;94683.53;;;18.43;64.21
11339;BME280;5724;42.684;23.252;2022-07-23T03:46:39;94690.59;;;18.51;63.90
11339;BME280;5724;42.684;23.252;2022-07-23T03:49:04;94690.56;;;18.62;63.64
11339;BME280;5724;42.684;23.252;2022-07-23T03:51:30;94686.22;;;18.68;64.27
11339;BME280;5724;42.684;23.252;2022-07-23T03:53:55;94686.59;;;18.70;64.21
11339;BME280;5724;42.684;23.252;2022-07-23T03:56:21;94688.56;;;18.77;64.05
11339;BME280;5724;42.684;23.252;2022-07-23T03:58:47;94689.38;;;18.74;64.13
11339;BME280;5724;42.684;23.252;2022-07-23T04:01:12;94684.66;;;18.64;64.43
11339;BME280;5724;42.684;23.252;2022-07-23T04:03:38;94687.00;;;18.76;63.93
11339;BME280;5724;42.684;23.252;2022-07-23T04:06:03;94687.31;;;18.88;63.94
11339;BME280;5724;42.684;23.252;2022-07-23T04:08:29;94682.94;;;18.95;64.05
11339;BME280;5724;42.684;23.252;2022-07-23T04:10:54;94692.03;;;18.95;64.04
11339;BME280;5724;42.684;23.252;2022-07-23T04:13:20;94683.72;;;18.95;63.79
11339;BME280;5724;42.684;23.252;2022-07-23T04:15:46;94691.94;;;19.09;63.38
11339;BME280;5724;42.684;23.252;2022-07-23T04:18:11;94690.78;;;19.07;62.84
11339;BME280;5724;42.684;23.252;2022-07-23T04:20:37;94671.75;;;19.09;62.89
11339;BME280;5724;42.684;23.252;2022-07-23T04:23:02;94695.81;;;19.26;61.92
11339;BME280;5724;42.684;23.252;2022-07-23T04:25:28;94701.00;;;19.17;62.20
11339;BME280;5724;42.684;23.252;2022-07-23T04:27:53;94690.97;;;18.64;62.63
11339;BME280;5724;42.684;23.252;2022-07-23T04:30:19;94700.41;;;18.84;62.88
11339;BME280;5724;42.684;23.252;2022-07-23T04:32:44;94700.41;;;18.84;62.79
11339;BME280;5724;42.684;23.252;2022-07-23T04:35:10;94693.22;;;18.91;62.70
11339;BME280;5724;42.684;23.252;2022-07-23T04:37:35;94697.50;;;19.06;62.40
11339;BME280;5724;42.684;23.252;2022-07-23T04:40:01;94705.78;;;19.13;62.42
11339;BME280;5724;42.684;23.252;2022-07-23T04:42:26;94686.78;;;19.15;61.83
11339;BME280;5724;42.684;23.252;2022-07-23T04:44:52;94709.25;;;19.31;61.99
11339;BME280;5724;42.684;23.252;2022-07-23T04:47:17;94714.38;;;19.33;61.84
11339;BME280;5724;42.684;23.252;2022-07-23T04:49:43;94704.81;;;19.37;61.46
11339;BME280;5724;42.684;23.252;2022-07-23T04:52:09;94715.81;;;19.52;61.14
11339;BME280;5724;42.684;23.252;2022-07-23T04:54:34;94706.28;;;19.60;60.81
11339;BME280;5724;42.684;23.252;2022-07-23T04:56:59;94712.88;;;19.77;60.51
11339;BME280;5724;42.684;23.252;2022-07-23T04:59:25;94704.44;;;19.91;60.11
11339;BME280;5724;42.684;23.252;2022-07-23T05:01:50;94714.81;;;19.83;59.87
11339;BME280;5724;42.684;23.252;2022-07-23T05:04:16;94703.63;;;19.94;59.71
11339;BME280;5724;42.684;23.252;2022-07-23T05:06:41;94704.41;;;19.98;59.87
11339;BME280;5724;42.684;23.252;2022-07-23T05:09:07;94705.44;;;20.11;59.46
11339;BME280;5724;42.684;23.252;2022-07-23T05:11:32;94700.13;;;20.27;59.02
11339;BME280;5724;42.684;23.252;2022-07-23T05:13:58;94720.44;;;20.58;58.88
11339;BME280;5724;42.684;23.252;2022-07-23T05:16:23;94722.63;;;20.74;57.81
11339;BME280;5724;42.684;23.252;2022-07-23T05:18:49;94723.25;;;20.89;57.70
11339;BME280;5724;42.684;23.252;2022-07-23T05:21:15;94723.03;;;21.07;57.70
11339;BME280;5724;42.684;23.252;2022-07-23T05:23:40;94722.88;;;21.18;57.61
11339;BME280;5724;42.684;23.252;2022-07-23T05:26:06;94718.78;;;21.29;57.26
11339;BME280;5724;42.684;23.252;2022-07-23T05:28:31;94718.53;;;21.47;57.32
11339;BME280;5724;42.684;23.252;2022-07-23T05:30:57;94709.84;;;21.41;57.01
11339;BME280;5724;42.684;23.252;2022-07-23T05:33:22;94716.53;;;21.48;57.06
11339;BME280;5724;42.684;23.252;2022-07-23T05:35:48;94721.56;;;21.56;57.04
11339;BME280;5724;42.684;23.252;2022-07-23T05:38:13;94724.59;;;21.65;56.47
11339;BME280;5724;42.684;23.252;2022-07-23T05:40:39;94731.56;;;21.77;56.51
11339;BME280;5724;42.684;23.252;2022-07-23T05:43:04;94724.59;;;21.65;56.09
11339;BME280;5724;42.684;23.252;2022-07-23T05:45:29;94722.28;;;21.60;56.46
11339;BME280;5724;42.684;23.252;2022-07-23T05:47:55;94719.91;;;21.62;55.63
11339;BME280;5724;42.684;23.252;2022-07-23T05:50:21;94716.44;;;21.78;55.54
11339;BME280;5724;42.684;23.252;2022-07-23T05:52:46;94727.66;;;21.98;55.45
11339;BME280;5724;42.684;23.252;2022-07-23T05:55:12;94709.91;;;22.15;54.90
11339;BME280;5724;42.684;23.252;2022-07-23T05:57:39;94717.88;;;22.37;53.98
11339;BME280;5724;42.684;23.252;2022-07-23T06:00:06;94723.03;;;22.58;53.96
11339;BME280;5724;42.684;23.252;2022-07-23T06:02:32;94708.97;;;22.65;54.29
11339;BME280;5724;42.684;23.252;2022-07-23T06:04:57;94714.78;;;22.74;53.89
11339;BME280;5724;42.684;23.252;2022-07-23T06:07:23;94710.63;;;22.82;53.91
11339;BME280;5724;42.684;23.252;2022-07-23T06:09:48;94715.09;;;23.00;53.85
11339;BME280;5724;42.684;23.252;2022-07-23T06:12:15;94705.72;;;23.10;52.83
11339;BME280;5724;42.684;23.252;2022-07-23T06:14:41;94710.56;;;23.06;53.63
11339;BME280;5724;42.684;23.252;2022-07-23T06:17:07;94708.38;;;23.17;51.80
11339;BME280;5724;42.684;23.252;2022-07-23T06:19:32;94709.06;;;23.21;51.70
11339;BME280;5724;42.684;23.252;2022-07-23T06:21:57;94714.31;;;23.35;51.60
11339;BME280;5724;42.684;23.252;2022-07-23T06:24:23;94710.53;;;23.46;51.57
11339;BME280;5724;42.684;23.252;2022-07-23T06:26:48;94710.16;;;23.43;51.86
11339;BME280;5724;42.684;23.252;2022-07-23T06:29:14;94711.06;;;23.57;51.84
11339;BME280;5724;42.684;23.252;2022-07-23T06:31:39;94711.78;;;23.61;50.19
11339;BME280;5724;42.684;23.252;2022-07-23T06:34:05;94713.00;;;23.60;50.35
11339;BME280;5724;42.684;23.252;2022-07-23T06:36:30;94712.91;;;23.63;49.36
11339;BME280;5724;42.684;23.252;2022-07-23T06:38:56;94712.84;;;23.83;48.99
11339;BME280;5724;42.684;23.252;2022-07-23T06:41:21;94713.91;;;24.06;49.10
11339;BME280;5724;42.684;23.252;2022-07-23T06:43:48;94718.66;;;24.21;48.88
11339;BME280;5724;42.684;23.252;2022-07-23T06:46:14;94714.31;;;24.20;48.97
11339;BME280;5724;42.684;23.252;2022-07-23T06:48:39;94716.34;;;24.36;48.88
11339;BME280;5724;42.684;23.252;2022-07-23T06:51:05;94713.00;;;24.25;49.02
11339;BME280;5724;42.684;23.252;2022-07-23T06:53:31;94706.44;;;24.48;48.81
11339;BME280;5724;42.684;23.252;2022-07-23T06:55:56;94708.28;;;24.54;48.55
11339;BME280;5724;42.684;23.252;2022-07-23T06:58:22;94703.50;;;24.68;47.16
11339;BME280;5724;42.684;23.252;2022-07-23T07:00:47;94706.94;;;24.88;47.79
11339;BME280;5724;42.684;23.252;2022-07-23T07:03:13;94699.47;;;24.98;46.50
11339;BME280;5724;42.684;23.252;2022-07-23T07:05:38;94711.44;;;24.98;46.40
11339;BME280;5724;42.684;23.252;2022-07-23T07:08:05;94708.59;;;25.15;45.97
11339;BME280;5724;42.684;23.252;2022-07-23T07:10:31;94701.69;;;25.19;46.01
11339;BME280;5724;42.684;23.252;2022-07-23T07:12:57;94700.94;;;25.44;45.05
11339;BME280;5724;42.684;23.252;2022-07-23T07:15:22;94706.44;;;25.60;45.44
11339;BME280;5724;42.684;23.252;2022-07-23T07:17:48;94705.47;;;25.80;45.00
11339;BME280;5724;42.684;23.252;2022-07-23T07:20:13;94701.84;;;25.92;44.09
11339;BME280;5724;42.684;23.252;2022-07-23T07:22:39;94697.38;;;25.94;43.48
11339;BME280;5724;42.684;23.252;2022-07-23T07:25:06;94691.88;;;26.04;44.27
11339;BME280;5724;42.684;23.252;2022-07-23T07:27:31;94696.00;;;26.12;44.39
11339;BME280;5724;42.684;23.252;2022-07-23T07:29:57;94695.97;;;26.24;43.80
11339;BME280;5724;42.684;23.252;2022-07-23T07:32:22;94691.16;;;26.38;43.36
11339;BME280;5724;42.684;23.252;2022-07-23T07:34:48;94693.19;;;26.37;43.95
11339;BME280;5724;42.684;23.252;2022-07-23T07:37:13;94688.63;;;26.52;43.03
11339;BME280;5724;42.684;23.252;2022-07-23T07:39:38;94687.69;;;26.68;42.45
11339;BME280;5724;42.684;23.252;2022-07-23T07:42:04;94683.31;;;26.67;42.08
11339;BME280;5724;42.684;23.252;2022-07-23T07:44:30;94688.34;;;26.38;42.20
11339;BME280;5724;42.684;23.252;2022-07-23T07:46:55;94683.97;;;26.37;42.49
11339;BME280;5724;42.684;23.252;2022-07-23T07:49:21;94687.75;;;26.56;42.34
11339;BME280;5724;42.684;23.252;2022-07-23T07:51:46;94689.31;;;26.57;42.51
11339;BME280;5724;42.684;23.252;2022-07-23T07:54:12;94676.94;;;26.67;42.46
11339;BME280;5724;42.684;23.252;2022-07-23T07:56:38;94685.19;;;26.92;41.65
11339;BME280;5724;42.684;23.252;2022-07-23T07:59:05;94675.22;;;26.91;41.28
11339;BME280;5724;42.684;23.252;2022-07-23T08:01:31;94679.50;;;27.18;41.35
11339;BME280;5724;42.684;23.252;2022-07-23T08:03:57;94679.41;;;27.30;40.97
11339;BME280;5724;42.684;23.252;2022-07-23T08:06:22;94679.13;;;27.37;40.95
11339;BME280;5724;42.684;23.252;2022-07-23T08:08:48;94673.88;;;27.18;40.97
11339;BME280;5724;42.684;23.252;2022-07-23T08:11:13;94666.66;;;27.38;40.71
11339;BME280;5724;42.684;23.252;2022-07-23T08:13:39;94670.16;;;27.21;41.04
11339;BME280;5724;42.684;23.252;2022-07-23T08:16:04;94668.97;;;27.62;40.64
11339;BME280;5724;42.684;23.252;2022-07-23T08:18:30;94671.69;;;27.75;40.12
11339;BME280;5724;42.684;23.252;2022-07-23T08:20:55;94667.72;;;27.63;40.49
11339;BME280;5724;42.684;23.252;2022-07-23T08:23:21;94671.28;;;27.94;39.84
11339;BME280;5724;42.684;23.252;2022-07-23T08:25:47;94664.94;;;28.12;40.22
11339;BME280;5724;42.684;23.252;2022-07-23T08:28:14;94668.59;;;28.40;39.94
11339;BME280;5724;42.684;23.252;2022-07-23T08:30:42;94661.75;;;28.60;40.06
11339;BME280;5724;42.684;23.252;2022-07-23T08:33:10;94648.28;;;28.73;39.61
11339;BME280;5724;42.684;23.252;2022-07-23T08:35:47;94661.34;;;28.12;40.28
11339;BME280;5724;42.684;23.252;2022-07-23T08:38:14;94665.63;;;28.44;40.01
11339;BME280;5724;42.684;23.252;2022-07-23T08:40:43;94671.25;;;28.71;39.61
11339;BME280;5724;42.684;23.252;2022-07-23T08:43:15;94664.56;;;28.87;39.39
11339;BME280;5724;42.684;23.252;2022-07-23T08:45:43;94661.88;;;29.11;39.68
11339;BME280;5724;42.684;23.252;2022-07-23T08:48:14;94665.75;;;29.23;40.14
11339;BME280;5724;42.684;23.252;2022-07-23T08:50:45;94663.03;;;29.47;39.43
11339;BME280;5724;42.684;23.252;2022-07-23T08:53:11;94660.81;;;29.60;38.34
11339;BME280;5724;42.684;23.252;2022-07-23T08:55:37;94658.72;;;29.79;38.12
11339;BME280;5724;42.684;23.252;2022-07-23T08:58:02;94654.00;;;29.85;38.09
11339;BME280;5724;42.684;23.252;2022-07-23T09:00:28;94661.38;;;30.15;37.66
11339;BME280;5724;42.684;23.252;2022-07-23T09:02:54;94658.75;;;30.36;37.62
11339;BME280;5724;42.684;23.252;2022-07-23T09:05:21;94657.41;;;30.46;37.09
11339;BME280;5724;42.684;23.252;2022-07-23T09:08:06;94652.44;;;30.65;36.73
11339;BME280;5724;42.684;23.252;2022-07-23T09:10:54;94651.53;;;30.83;36.03
11339;BME280;5724;42.684;23.252;2022-07-23T09:13:31;94644.94;;;31.15;36.16
11339;BME280;5724;42.684;23.252;2022-07-23T09:16:03;94648.03;;;31.17;34.71
11339;BME280;5724;42.684;23.252;2022-07-23T09:18:34;94652.75;;;31.35;35.27
11339;BME280;5724;42.684;23.252;2022-07-23T09:21:11;94656.06;;;31.33;34.68
11339;BME280;5724;42.684;23.252;2022-07-23T09:24:00;94654.78;;;31.34;34.37
11339;BME280;5724;42.684;23.252;2022-07-23T09:26:41;94651.91;;;31.29;33.28
11339;BME280;5724;42.684;23.252;2022-07-23T09:29:26;94649.06;;;31.44;33.75
11339;BME280;5724;42.684;23.252;2022-07-23T09:36:51;94638.25;;;32.07;32.37
11339;BME280;5724;42.684;23.252;2022-07-23T09:39:26;94644.63;;;32.22;32.13
11339;BME280;5724;42.684;23.252;2022-07-23T09:41:51;94637.91;;;32.34;31.72
11339;BME280;5724;42.684;23.252;2022-07-23T09:44:19;94633.28;;;32.37;31.38
11339;BME280;5724;42.684;23.252;2022-07-23T09:46:47;94635.88;;;32.20;31.62
11339;BME280;5724;42.684;23.252;2022-07-23T09:49:21;94627.19;;;32.24;31.47
11339;BME280;5724;42.684;23.252;2022-07-23T09:54:34;94632.25;;;32.55;31.18
11339;BME280;5724;42.684;23.252;2022-07-23T09:57:04;94629.69;;;32.57;29.78
11339;BME280;5724;42.684;23.252;2022-07-23T09:59:34;94626.22;;;32.88;28.93
11339;BME280;5724;42.684;23.252;2022-07-23T10:02:01;94626.66;;;33.07;29.23
11339;BME280;5724;42.684;23.252;2022-07-23T10:04:28;94625.22;;;33.17;28.52
11339;BME280;5724;42.684;23.252;2022-07-23T10:06:56;94618.78;;;33.16;27.74
11339;BME280;5724;42.684;23.252;2022-07-23T10:09:25;94614.56;;;33.32;27.04
11339;BME280;5724;42.684;23.252;2022-07-23T10:11:55;94618.03;;;33.42;26.39
11339;BME280;5724;42.684;23.252;2022-07-23T10:14:26;94611.66;;;33.52;27.20
11339;BME280;5724;42.684;23.252;2022-07-23T10:16:52;94611.50;;;33.62;26.08
11339;BME280;5724;42.684;23.252;2022-07-23T10:19:19;94614.78;;;33.54;26.73
11339;BME280;5724;42.684;23.252;2022-07-23T10:21:54;94613.56;;;33.67;25.42
11339;BME280;5724;42.684;23.252;2022-07-23T10:30:02;94604.47;;;33.57;25.02
11339;BME280;5724;42.684;23.252;2022-07-23T10:32:53;94599.06;;;33.53;25.29
11339;BME280;5724;42.684;23.252;2022-07-23T10:35:31;94598.16;;;33.73;25.36
11339;BME280;5724;42.684;23.252;2022-07-23T10:38:11;94593.22;;;34.00;24.83
11339;BME280;5724;42.684;23.252;2022-07-23T10:40:56;94591.78;;;34.21;24.84
11339;BME280;5724;42.684;23.252;2022-07-23T10:43:22;94596.44;;;34.19;25.38
11339;BME280;5724;42.684;23.252;2022-07-23T10:45:49;94586.31;;;34.12;24.38
11339;BME280;5724;42.684;23.252;2022-07-23T10:48:19;94590.75;;;34.24;23.13
11339;BME280;5724;42.684;23.252;2022-07-23T10:51:15;94585.53;;;33.69;21.70
11339;BME280;5724;42.684;23.252;2022-07-23T10:53:58;94581.63;;;33.66;20.96
11339;BME280;5724;42.684;23.252;2022-07-23T10:59:21;94574.25;;;33.43;20.94
11339;BME280;5724;42.684;23.252;2022-07-23T11:01:47;94578.28;;;33.68;20.91
11339;BME280;5724;42.684;23.252;2022-07-23T11:04:12;94569.22;;;33.95;20.28
11339;BME280;5724;42.684;23.252;2022-07-23T11:09:32;94557.34;;;33.28;20.33
11339;BME280;5724;42.684;23.252;2022-07-23T11:15:13;94557.63;;;32.32;20.84
11339;BME280;5724;42.684;23.252;2022-07-23T11:25:13;94549.25;;;33.41;19.61
11339;BME280;5724;42.684;23.252;2022-07-23T11:27:43;94548.31;;;33.50;19.38
11339;BME280;5724;42.684;23.252;2022-07-23T11:30:11;94544.53;;;33.64;20.67
11339;BME280;5724;42.684;23.252;2022-07-23T11:33:21;94548.59;;;33.89;19.50
11339;BME280;5724;42.684;23.252;2022-07-23T11:35:50;94541.25;;;33.77;17.76
11339;BME280;5724;42.684;23.252;2022-07-23T11:38:25;94541.03;;;33.86;18.29
11339;BME280;5724;42.684;23.252;2022-07-23T11:40:55;94544.56;;;34.12;17.75
11339;BME280;5724;42.684;23.252;2022-07-23T11:43:23;94534.28;;;33.72;18.49
11339;BME280;5724;42.684;23.252;2022-07-23T11:45:51;94533.75;;;33.74;18.26
11339;BME280;5724;42.684;23.252;2022-07-23T11:48:20;94529.81;;;34.03;18.07
11339;BME280;5724;42.684;23.252;2022-07-23T11:50:47;94523.91;;;34.01;18.95
11339;BME280;5724;42.684;23.252;2022-07-23T11:53:13;94527.56;;;34.12;19.41
11339;BME280;5724;42.684;23.252;2022-07-23T11:55:38;94523.97;;;34.23;17.79
11339;BME280;5724;42.684;23.252;2022-07-23T11:58:04;94518.44;;;34.46;18.15
11339;BME280;5724;42.684;23.252;2022-07-23T12:00:31;94518.53;;;34.85;18.08
11339;BME280;5724;42.684;23.252;2022-07-23T12:02:59;94519.34;;;34.96;17.88
11339;BME280;5724;42.684;23.252;2022-07-23T12:05:31;94521.38;;;34.90;17.77
11339;BME280;5724;42.684;23.252;2022-07-23T12:07:57;94516.09;;;34.44;18.10
11339;BME280;5724;42.684;23.252;2022-07-23T12:13:02;94508.47;;;34.13;19.34
11339;BME280;5724;42.684;23.252;2022-07-23T12:15:48;94504.72;;;34.38;18.79
11339;BME280;5724;42.684;23.252;2022-07-23T12:18:20;94499.88;;;34.50;19.52
11339;BME280;5724;42.684;23.252;2022-07-23T12:20:48;94502.97;;;34.63;19.31
11339;BME280;5724;42.684;23.252;2022-07-23T12:23:16;94504.41;;;34.31;17.79
11339;BME280;5724;42.684;23.252;2022-07-23T12:25:43;94492.16;;;33.91;18.50
11339;BME280;5724;42.684;23.252;2022-07-23T12:28:15;94505.69;;;33.76;19.13
11339;BME280;5724;42.684;23.252;2022-07-23T12:30:48;94493.47;;;34.01;18.69
11339;BME280;5724;42.684;23.252;2022-07-23T12:33:21;94491.25;;;34.22;19.74
11339;BME280;5724;42.684;23.252;2022-07-23T12:35:47;94485.44;;;34.70;18.85
11339;BME280;5724;42.684;23.252;2022-07-23T12:38:16;94484.16;;;34.60;17.48
11339;BME280;5724;42.684;23.252;2022-07-23T12:40:49;94486.13;;;34.37;17.44
11339;BME280;5724;42.684;23.252;2022-07-23T12:48:27;94471.81;;;34.86;17.50
11339;BME280;5724;42.684;23.252;2022-07-23T12:51:12;94474.91;;;35.21;18.56
11339;BME280;5724;42.684;23.252;2022-07-23T12:53:45;94475.19;;;35.07;18.24
11339;BME280;5724;42.684;23.252;2022-07-23T12:56:19;94463.81;;;35.01;17.99
11339;BME280;5724;42.684;23.252;2022-07-23T12:58:53;94465.88;;;35.00;18.48
11339;BME280;5724;42.684;23.252;2022-07-23T13:06:20;94465.59;;;35.60;19.54
11339;BME280;5724;42.684;23.252;2022-07-23T13:08:45;94470.94;;;35.80;18.59
11339;BME280;5724;42.684;23.252;2022-07-23T13:11:11;94458.03;;;35.79;18.85
11339;BME280;5724;42.684;23.252;2022-07-23T13:13:36;94457.47;;;35.98;18.33
11339;BME280;5724;42.684;23.252;2022-07-23T13:16:02;94463.16;;;35.98;18.40
11339;BME280;5724;42.684;23.252;2022-07-23T13:18:28;94460.31;;;36.03;18.91
11339;BME280;5724;42.684;23.252;2022-07-23T13:20:54;94468.22;;;36.27;18.08
11339;BME280;5724;42.684;23.252;2022-07-23T13:23:21;94463.00;;;36.43;18.24
11339;BME280;5724;42.684;23.252;2022-07-23T13:25:47;94461.69;;;36.44;17.28
11339;BME280;5724;42.684;23.252;2022-07-23T13:28:14;94461.41;;;36.47;17.09
11339;BME280;5724;42.684;23.252;2022-07-23T13:30:41;94457.22;;;36.54;17.17
11339;BME280;5724;42.684;23.252;2022-07-23T13:33:07;94453.00;;;36.66;16.77
11339;BME280;5724;42.684;23.252;2022-07-23T13:35:34;94450.59;;;36.81;16.33
11339;BME280;5724;42.684;23.252;2022-07-23T13:38:00;94454.38;;;36.59;16.57
11339;BME280;5724;42.684;23.252;2022-07-23T13:40:26;94453.50;;;36.70;16.27
11339;BME280;5724;42.684;23.252;2022-07-23T13:42:51;94450.28;;;36.90;15.77